Time;durP1;ratioP1;P1;durP2;ratioP2;P2;SDS_P1;SDS_P2;PMS_P1;PMS_P2;Temp;Humidity;BMP_temperature;BMP_pressure;BME280_temperature;BME280_humidity;BME280_pressure;Samples;Min_cycle;Max_cycle;Signal;HPM_P1;HPM_P2
2023/10/21 00:00:27;;;;;;;30.30;19.02;;;;;;;-148.88;100.00;-17125.47;5050843;28;20033;-75
2023/10/21 00:02:52;;;;;;;36.97;20.33;;;;;;;-148.88;100.00;-17125.47;5050860;28;20048;-76
2023/10/21 00:05:17;;;;;;;28.70;19.08;;;;;;;-148.88;100.00;-17125.47;5051008;28;20479;-75
2023/10/21 00:07:43;;;;;;;25.52;18.88;;;;;;;-148.88;100.00;-17125.47;5050804;28;20475;-76
2023/10/21 00:10:09;;;;;;;27.77;19.52;;;;;;;-148.88;100.00;-17125.47;5052079;28;20395;-75
2023/10/21 00:12:37;;;;;;;14.35;7.32;;;;;;;-148.88;100.00;-17125.47;5052149;28;20025;-76
2023/10/21 00:15:07;;;;;;;26.33;18.38;;;;;;;-148.88;100.00;-17125.47;5052071;28;20025;-76
2023/10/21 00:17:33;;;;;;;24.48;17.27;;;;;;;-148.88;100.00;-17125.47;5052425;28;20025;-76
2023/10/21 00:19:59;;;;;;;23.63;17.35;;;;;;;-148.88;100.00;-17125.47;5051945;28;20021;-76
2023/10/21 00:22:25;;;;;;;24.00;17.20;;;;;;;-148.88;100.00;-17125.47;5050804;28;20035;-75
2023/10/21 00:24:50;;;;;;;22.77;16.27;;;;;;;-148.88;100.00;-17125.47;5050737;28;20020;-75
2023/10/21 00:27:15;;;;;;;19.00;14.13;;;;;;;-148.88;100.00;-17125.47;5051839;28;20104;-75
2023/10/21 00:29:41;;;;;;;17.08;14.00;;;;;;;-148.88;100.00;-17125.47;5053880;28;20565;-75
2023/10/21 00:32:06;;;;;;;21.50;15.55;;;;;;;-148.88;100.00;-17125.47;5054670;28;20426;-75
2023/10/21 00:34:37;;;;;;;23.15;17.70;;;;;;;-148.88;100.00;-17125.47;5055660;28;20024;-75
2023/10/21 00:37:03;;;;;;;20.95;8.55;;;;;;;-148.88;100.00;-17125.47;5055937;28;20017;-76
2023/10/21 00:39:34;;;;;;;24.35;8.00;;;;;;;-148.88;100.00;-17125.47;5055481;28;20025;-75
2023/10/21 00:42:02;;;;;;;143.07;26.50;;;;;;;-148.88;100.00;-17125.47;5055459;28;20133;-75
2023/10/21 00:44:27;;;;;;;51.47;22.05;;;;;;;-148.88;100.00;-17125.47;5055574;28;20033;-76
2023/10/21 00:46:53;;;;;;;33.15;20.67;;;;;;;-148.88;100.00;-17125.47;5055437;28;20017;-75
2023/10/21 00:49:19;;;;;;;30.63;21.27;;;;;;;-148.88;100.00;-17125.47;5055274;28;20040;-75
2023/10/21 00:51:47;;;;;;;29.58;20.48;;;;;;;-148.88;100.00;-17125.47;5054187;28;20025;-75
2023/10/21 00:54:14;;;;;;;35.20;21.63;;;;;;;-148.88;100.00;-17125.47;5053884;28;20391;-76
2023/10/21 00:56:40;;;;;;;33.78;21.60;;;;;;;-148.88;100.00;-17125.47;5055219;28;20055;-75
2023/10/21 00:59:06;;;;;;;25.83;19.15;;;;;;;-148.88;100.00;-17125.47;5053802;28;20017;-75
2023/10/21 01:01:34;;;;;;;29.85;20.30;;;;;;;-148.88;100.00;-17125.47;5055209;28;20025;-75
2023/10/21 01:03:59;;;;;;;14.55;7.93;;;;;;;-148.88;100.00;-17125.47;5053743;28;20343;-75
2023/10/21 01:06:26;;;;;;;11.95;6.95;;;;;;;-148.88;100.00;-17125.47;5055090;28;20064;-76
2023/10/21 01:08:51;;;;;;;27.00;18.80;;;;;;;-148.88;100.00;-17125.47;5055182;28;20506;-75
2023/10/21 01:11:17;;;;;;;26.92;18.40;;;;;;;-148.88;100.00;-17125.47;5053646;28;20106;-76
2023/10/21 01:13:45;;;;;;;22.75;17.48;;;;;;;-148.88;100.00;-17125.47;5054899;28;20035;-75
2023/10/21 01:16:11;;;;;;;30.05;18.75;;;;;;;-148.88;100.00;-17125.47;5053483;28;20028;-76
2023/10/21 01:18:38;;;;;;;28.35;19.10;;;;;;;-148.88;100.00;-17125.47;5054935;28;20037;-76
2023/10/21 01:21:04;;;;;;;35.58;19.20;;;;;;;-148.88;100.00;-17125.47;5053324;28;20075;-75
2023/10/21 01:23:30;;;;;;;34.25;19.15;;;;;;;-148.88;100.00;-17125.47;5054754;28;20029;-76
2023/10/21 01:25:56;;;;;;;28.48;18.75;;;;;;;-148.88;100.00;-17125.47;5053319;28;20124;-75
2023/10/21 01:28:21;;;;;;;14.43;7.90;;;;;;;-148.88;100.00;-17125.47;5053235;28;20104;-75
2023/10/21 01:30:46;;;;;;;21.48;16.33;;;;;;;-148.88;100.00;-17125.47;5053158;28;20065;-75
2023/10/21 01:33:12;;;;;;;23.92;16.55;;;;;;;-148.88;100.00;-17125.47;5054602;28;20098;-75
2023/10/21 01:35:38;;;;;;;35.38;17.17;;;;;;;-148.88;100.00;-17125.47;5054441;28;20024;-75
2023/10/21 01:38:03;;;;;;;43.85;19.08;;;;;;;-148.88;100.00;-17125.47;5054540;28;20027;-75
2023/10/21 01:40:29;;;;;;;23.63;16.60;;;;;;;-148.88;100.00;-17125.47;5052046;28;20021;-74
2023/10/21 01:42:54;;;;;;;25.70;18.23;;;;;;;-148.88;100.00;-17125.47;5054667;28;20025;-74
2023/10/21 01:45:20;;;;;;;13.55;6.88;;;;;;;-148.88;100.00;-17125.47;5053221;28;20029;-75
2023/10/21 01:47:45;;;;;;;28.55;18.27;;;;;;;-148.88;100.00;-17125.47;5052859;28;20017;-75
2023/10/21 01:50:11;;;;;;;32.38;19.35;;;;;;;-148.88;100.00;-17125.47;5054275;28;20033;-75
2023/10/21 01:52:38;;;;;;;13.30;6.78;;;;;;;-148.88;100.00;-17125.47;5054151;28;20043;-75
2023/10/21 01:55:11;;;;;;;30.58;18.95;;;;;;;-148.88;100.00;-17125.47;5053382;28;20054;-75
2023/10/21 01:57:37;;;;;;;26.00;18.38;;;;;;;-148.88;100.00;-17125.47;5052756;28;20103;-75
2023/10/21 02:00:05;;;;;;;25.77;17.40;;;;;;;-148.88;100.00;-17125.47;5052762;28;20112;-76
2023/10/21 02:02:33;;;;;;;13.05;7.28;;;;;;;-148.88;100.00;-17125.47;5054031;28;20021;-75
2023/10/21 02:04:59;;;;;;;25.98;17.35;;;;;;;-148.88;100.00;-17125.47;5053869;28;20024;-75
2023/10/21 02:07:24;;;;;;;26.30;18.05;;;;;;;-148.88;100.00;-17125.47;5053816;28;20032;-75
2023/10/21 02:09:49;;;;;;;30.27;19.20;;;;;;;-148.88;100.00;-17125.47;5053943;28;20028;-75
2023/10/21 02:12:15;;;;;;;25.65;17.65;;;;;;;-148.88;100.00;-17125.47;5052500;28;20064;-75
2023/10/21 02:14:40;;;;;;;26.48;18.95;;;;;;;-148.88;100.00;-17125.47;5053719;28;20029;-75
2023/10/21 02:17:06;;;;;;;13.15;7.30;;;;;;;-148.88;100.00;-17125.47;5053807;28;20017;-75
2023/10/21 02:19:32;;;;;;;28.50;18.77;;;;;;;-148.88;100.00;-17125.47;5053649;28;20025;-75
2023/10/21 02:21:58;;;;;;;29.58;19.67;;;;;;;-148.88;100.00;-17125.47;5053584;28;20403;-76
2023/10/21 02:24:24;;;;;;;28.15;19.08;;;;;;;-148.88;100.00;-17125.47;5053643;28;20025;-75
2023/10/21 02:26:49;;;;;;;28.00;18.52;;;;;;;-148.88;100.00;-17125.47;5053387;28;20033;-75
2023/10/21 02:29:15;;;;;;;29.10;19.40;;;;;;;-148.88;100.00;-17125.47;5053432;28;20450;-75
2023/10/21 02:31:41;;;;;;;28.65;19.80;;;;;;;-148.88;100.00;-17125.47;5053494;28;20483;-75
2023/10/21 02:34:07;;;;;;;32.88;18.95;;;;;;;-148.88;100.00;-17125.47;5053283;28;20554;-75
2023/10/21 02:36:33;;;;;;;29.48;19.30;;;;;;;-148.88;100.00;-17125.47;5053487;28;20021;-75
2023/10/21 02:38:59;;;;;;;26.92;18.27;;;;;;;-148.88;100.00;-17125.47;5052490;28;20021;-75
2023/10/21 02:41:24;;;;;;;24.52;17.58;;;;;;;-148.88;100.00;-17125.47;5053189;28;20456;-75
2023/10/21 02:43:50;;;;;;;33.90;19.65;;;;;;;-148.88;100.00;-17125.47;5053240;28;20454;-75
2023/10/21 02:46:15;;;;;;;28.35;19.13;;;;;;;-148.88;100.00;-17125.47;5052967;28;20029;-75
2023/10/21 02:48:43;;;;;;;27.98;18.85;;;;;;;-148.88;100.00;-17125.47;5053196;28;20112;-75
2023/10/21 02:51:18;;;;;;;28.98;19.98;;;;;;;-148.88;100.00;-17125.47;5052915;28;20099;-75
2023/10/21 02:53:44;;;;;;;30.20;19.45;;;;;;;-148.88;100.00;-17125.47;5053155;28;20029;-75
2023/10/21 02:56:10;;;;;;;32.58;19.92;;;;;;;-148.88;100.00;-17125.47;5053212;28;20025;-75
2023/10/21 02:58:37;;;;;;;30.85;20.05;;;;;;;-148.88;100.00;-17125.47;5052898;28;20032;-74
2023/10/21 03:01:11;;;;;;;27.90;19.30;;;;;;;-148.88;100.00;-17125.47;5053176;28;20025;-75
2023/10/21 03:03:37;;;;;;;28.77;19.08;;;;;;;-148.88;100.00;-17125.47;5051612;28;20025;-75
2023/10/21 03:06:03;;;;;;;30.13;20.10;;;;;;;-148.88;100.00;-17125.47;5052764;28;20021;-75
2023/10/21 03:08:29;;;;;;;31.67;20.45;;;;;;;-148.88;100.00;-17125.47;5052781;28;20491;-75
2023/10/21 03:10:54;;;;;;;31.95;20.55;;;;;;;-148.88;100.00;-17125.47;5051408;28;20031;-75
2023/10/21 03:13:20;;;;;;;16.38;9.20;;;;;;;-148.88;100.00;-17125.47;5051469;28;20056;-75
2023/10/21 03:15:45;;;;;;;25.90;18.98;;;;;;;-148.88;100.00;-17125.47;5052894;28;20083;-75
2023/10/21 03:18:13;;;;;;;27.38;19.77;;;;;;;-148.88;100.00;-17125.47;5052762;28;20043;-75
2023/10/21 03:20:38;;;;;;;28.75;19.60;;;;;;;-148.88;100.00;-17125.47;5051283;28;20035;-75
2023/10/21 03:23:04;;;;;;;31.90;19.33;;;;;;;-148.88;100.00;-17125.47;5052673;28;20111;-75
2023/10/21 03:25:29;;;;;;;28.58;19.70;;;;;;;-148.88;100.00;-17125.47;5052634;28;20100;-75
2023/10/21 03:27:54;;;;;;;32.05;19.98;;;;;;;-148.88;100.00;-17125.47;5051122;28;20024;-75
2023/10/21 03:30:20;;;;;;;31.52;19.95;;;;;;;-148.88;100.00;-17125.47;5052750;28;20073;-74
2023/10/21 03:32:45;;;;;;;33.38;19.98;;;;;;;-148.88;100.00;-17125.47;5051519;28;20028;-75
2023/10/21 03:35:11;;;;;;;16.42;7.47;;;;;;;-148.88;100.00;-17125.47;5051328;28;20021;-75
2023/10/21 03:37:36;;;;;;;30.58;19.38;;;;;;;-148.88;100.00;-17125.47;5052580;28;20446;-74
2023/10/21 03:40:05;;;;;;;30.27;20.08;;;;;;;-148.88;100.00;-17125.47;5051130;28;20109;-74
2023/10/21 03:42:31;;;;;;;30.42;19.08;;;;;;;-148.88;100.00;-17125.47;5052808;28;20021;-75
2023/10/21 03:44:56;;;;;;;30.77;20.08;;;;;;;-148.88;100.00;-17125.47;5052441;28;20479;-74
2023/10/21 03:47:22;;;;;;;31.15;20.50;;;;;;;-148.88;100.00;-17125.47;5052258;28;20438;-74
2023/10/21 03:49:47;;;;;;;31.33;20.83;;;;;;;-148.88;100.00;-17125.47;5052311;28;20110;-75
2023/10/21 03:52:12;;;;;;;32.28;21.70;;;;;;;-148.88;100.00;-17125.47;5052449;28;20052;-74
2023/10/21 03:54:38;;;;;;;32.03;21.00;;;;;;;-148.88;100.00;-17125.47;5051148;28;20056;-74
2023/10/21 03:57:04;;;;;;;33.25;21.00;;;;;;;-148.88;100.00;-17125.47;5052646;28;20025;-74
2023/10/21 03:59:29;;;;;;;31.35;20.80;;;;;;;-148.88;100.00;-17125.47;5052402;28;20060;-74
2023/10/21 04:01:54;;;;;;;28.30;19.95;;;;;;;-148.88;100.00;-17125.47;5052336;28;20103;-74
2023/10/21 04:04:20;;;;;;;31.00;20.83;;;;;;;-148.88;100.00;-17125.47;5055392;28;20016;-74
2023/10/21 04:06:48;;;;;;;33.50;21.13;;;;;;;-148.88;100.00;-17125.47;5054888;28;20017;-73
2023/10/21 04:09:13;;;;;;;32.08;19.95;;;;;;;-148.88;100.00;-17125.47;5056070;28;20096;-75
2023/10/21 04:11:39;;;;;;;32.90;19.83;;;;;;;-148.88;100.00;-17125.47;5055921;28;20063;-74
2023/10/21 04:14:05;;;;;;;35.65;21.38;;;;;;;-148.88;100.00;-17125.47;5055904;28;20060;-74
2023/10/21 04:16:31;;;;;;;33.20;21.30;;;;;;;-148.88;100.00;-17125.47;5055980;28;20017;-73
2023/10/21 04:18:57;;;;;;;32.28;20.73;;;;;;;-148.88;100.00;-17125.47;5054427;28;20025;-74
2023/10/21 04:21:24;;;;;;;38.22;22.45;;;;;;;-148.88;100.00;-17125.47;5055745;28;20039;-74
2023/10/21 04:23:49;;;;;;;37.05;21.98;;;;;;;-148.88;100.00;-17125.47;5054269;28;20108;-74
2023/10/21 04:26:15;;;;;;;35.08;21.40;;;;;;;-148.88;100.00;-17125.47;5055485;28;20052;-75
2023/10/21 04:28:40;;;;;;;36.38;21.85;;;;;;;-148.88;100.00;-17125.47;5055398;28;20033;-74
2023/10/21 04:31:06;;;;;;;33.10;20.52;;;;;;;-148.88;100.00;-17125.47;5055381;28;20029;-74
2023/10/21 04:33:31;;;;;;;55.65;24.33;;;;;;;-148.88;100.00;-17125.47;5054167;28;20060;-74
2023/10/21 04:35:57;;;;;;;32.13;20.48;;;;;;;-148.88;100.00;-17125.47;5055413;28;20387;-74
2023/10/21 04:38:22;;;;;;;34.25;20.52;;;;;;;-148.88;100.00;-17125.47;5055161;28;20017;-74
2023/10/21 04:40:47;;;;;;;77.78;25.42;;;;;;;-148.88;100.00;-17125.47;5053954;28;20029;-74
2023/10/21 04:43:13;;;;;;;92.40;26.65;;;;;;;-148.88;100.00;-17125.47;5054139;28;20024;-74
2023/10/21 04:45:38;;;;;;;81.18;26.33;;;;;;;-148.88;100.00;-17125.47;5055468;28;20028;-74
2023/10/21 04:48:04;;;;;;;79.75;26.10;;;;;;;-148.88;100.00;-17125.47;5053862;28;20082;-74
2023/10/21 04:50:29;;;;;;;85.05;25.92;;;;;;;-148.88;100.00;-17125.47;5054222;28;20029;-74
2023/10/21 04:52:55;;;;;;;115.43;27.88;;;;;;;-148.88;100.00;-17125.47;5055254;28;20108;-74
2023/10/21 04:55:21;;;;;;;51.92;24.13;;;;;;;-148.88;100.00;-17125.47;5055092;28;20021;-74
2023/10/21 04:57:46;;;;;;;46.08;21.95;;;;;;;-148.88;100.00;-17125.47;5055069;28;20043;-74
2023/10/21 05:00:14;;;;;;;75.57;23.95;;;;;;;-148.88;100.00;-17125.47;5054865;28;20163;-74
2023/10/21 05:02:40;;;;;;;68.63;24.65;;;;;;;-148.88;100.00;-17125.47;5053662;28;20028;-74
2023/10/21 05:05:06;;;;;;;89.60;25.85;;;;;;;-148.88;100.00;-17125.47;5053564;28;20021;-74
2023/10/21 05:07:31;;;;;;;79.97;25.25;;;;;;;-148.88;100.00;-17125.47;5054956;28;20144;-74
2023/10/21 05:09:57;;;;;;;30.50;19.58;;;;;;;-148.88;100.00;-17125.47;5054965;28;20025;-74
2023/10/21 05:12:23;;;;;;;41.42;20.65;;;;;;;-148.88;100.00;-17125.47;5053371;28;20554;-74
2023/10/21 05:14:48;;;;;;;39.22;20.00;;;;;;;-148.88;100.00;-17125.47;5054520;28;20029;-74
2023/10/21 05:17:14;;;;;;;105.95;23.80;;;;;;;-148.88;100.00;-17125.47;5054882;28;20021;-74
2023/10/21 05:19:39;;;;;;;40.05;19.08;;;;;;;-148.88;100.00;-17125.47;5054544;28;20095;-74
2023/10/21 05:22:04;;;;;;;159.73;27.40;;;;;;;-148.88;100.00;-17125.47;5054741;28;20052;-74
2023/10/21 05:24:30;;;;;;;32.67;18.77;;;;;;;-148.88;100.00;-17125.47;5054814;28;20494;-75
2023/10/21 05:26:55;;;;;;;33.40;17.92;;;;;;;-148.88;100.00;-17125.47;5053109;28;20036;-75
2023/10/21 05:29:21;;;;;;;36.85;18.75;;;;;;;-148.88;100.00;-17125.47;5054752;28;20097;-74
2023/10/21 05:31:47;;;;;;;35.42;17.98;;;;;;;-148.88;100.00;-17125.47;5054455;28;20506;-74
2023/10/21 05:34:17;;;;;;;62.30;19.35;;;;;;;-148.88;100.00;-17125.47;5052983;28;20074;-74
2023/10/21 05:36:44;;;;;;;33.65;17.27;;;;;;;-148.88;100.00;-17125.47;5054270;28;20025;-74
2023/10/21 05:39:11;;;;;;;25.45;15.98;;;;;;;-148.88;100.00;-17125.47;5052874;28;20066;-74
2023/10/21 05:41:37;;;;;;;30.70;16.63;;;;;;;-148.88;100.00;-17125.47;5052846;28;20131;-74
2023/10/21 05:44:03;;;;;;;28.80;16.63;;;;;;;-148.88;100.00;-17125.47;5054223;28;20056;-74
2023/10/21 05:46:28;;;;;;;55.88;18.67;;;;;;;-148.88;100.00;-17125.47;5052617;28;20060;-74
2023/10/21 05:48:54;;;;;;;28.38;16.30;;;;;;;-148.88;100.00;-17125.47;5053919;28;20106;-74
2023/10/21 05:51:19;;;;;;;45.03;17.85;;;;;;;-148.88;100.00;-17125.47;5052655;28;20070;-74
2023/10/21 05:53:45;;;;;;;246.38;31.10;;;;;;;-148.88;100.00;-17125.47;5052616;28;20032;-74
2023/10/21 05:56:12;;;;;;;349.58;34.83;;;;;;;-148.88;100.00;-17125.47;5054186;28;20330;-74
2023/10/21 05:58:39;;;;;;;131.20;22.30;;;;;;;-148.88;100.00;-17125.47;5052489;28;20112;-74
2023/10/21 06:01:06;;;;;;;103.25;18.80;;;;;;;-148.88;100.00;-17125.47;5053843;28;20459;-74
2023/10/21 06:03:32;;;;;;;163.13;23.67;;;;;;;-148.88;100.00;-17125.47;5053798;28;20090;-74
2023/10/21 06:05:57;;;;;;;78.78;14.65;;;;;;;-148.88;100.00;-17125.47;5053643;28;20028;-74
2023/10/21 06:08:23;;;;;;;41.20;14.52;;;;;;;-148.88;100.00;-17125.47;5053423;28;20021;-74
2023/10/21 06:10:48;;;;;;;44.50;15.05;;;;;;;-148.88;100.00;-17125.47;5052172;28;20124;-74
2023/10/21 06:13:13;;;;;;;37.17;14.13;;;;;;;-148.88;100.00;-17125.47;5053883;28;20048;-74
2023/10/21 06:15:39;;;;;;;119.97;21.15;;;;;;;-148.88;100.00;-17125.47;5053445;28;20480;-74
2023/10/21 06:18:05;;;;;;;131.60;20.80;;;;;;;-148.88;100.00;-17125.47;5053274;28;20095;-78
2023/10/21 06:20:31;;;;;;;117.07;21.85;;;;;;;-148.88;100.00;-17125.47;5052162;28;20057;-73
2023/10/21 06:22:56;;;;;;;101.03;21.33;;;;;;;-148.88;100.00;-17125.47;5053411;28;20104;-73
2023/10/21 06:25:22;;;;;;;61.30;14.73;;;;;;;-148.88;100.00;-17125.47;5052934;28;20128;-73
2023/10/21 06:27:47;;;;;;;46.55;13.10;;;;;;;-148.88;100.00;-17125.47;5052908;28;20078;-73
2023/10/21 06:30:13;;;;;;;51.28;14.82;;;;;;;-148.88;100.00;-17125.47;5053241;28;20112;-73
2023/10/21 06:32:38;;;;;;;66.30;15.60;;;;;;;-148.88;100.00;-17125.47;5053486;28;20118;-74
2023/10/21 06:35:04;;;;;;;62.13;15.40;;;;;;;-148.88;100.00;-17125.47;5051568;28;20079;-74
2023/10/21 06:37:29;;;;;;;37.58;14.68;;;;;;;-148.88;100.00;-17125.47;5052940;28;20070;-73
2023/10/21 06:39:55;;;;;;;41.20;18.15;;;;;;;-148.88;100.00;-17125.47;5052752;28;20417;-73
2023/10/21 06:42:20;;;;;;;36.42;17.58;;;;;;;-148.88;100.00;-17125.47;5051617;28;20021;-73
2023/10/21 06:44:46;;;;;;;26.45;15.18;;;;;;;-148.88;100.00;-17125.47;5051652;28;20028;-73
2023/10/21 06:47:11;;;;;;;28.45;15.65;;;;;;;-148.88;100.00;-17125.47;5052817;28;20547;-73
2023/10/21 06:49:37;;;;;;;28.70;15.10;;;;;;;-148.88;100.00;-17125.47;5051449;28;20037;-73
2023/10/21 06:52:03;;;;;;;34.15;17.77;;;;;;;-148.88;100.00;-17125.47;5052918;28;20025;-73
2023/10/21 06:54:28;;;;;;;29.17;18.35;;;;;;;-148.88;100.00;-17125.47;5052745;28;20446;-73
2023/10/21 06:56:53;;;;;;;27.10;18.25;;;;;;;-148.88;100.00;-17125.47;5052738;28;20017;-75
2023/10/21 06:59:19;;;;;;;26.33;16.67;;;;;;;-148.88;100.00;-17125.47;5052756;28;20108;-74
2023/10/21 07:01:44;;;;;;;33.47;21.10;;;;;;;-148.88;100.00;-17125.47;5052745;28;20025;-74
2023/10/21 07:04:10;;;;;;;35.63;22.88;;;;;;;-148.88;100.00;-17125.47;5052718;28;20021;-73
2023/10/21 07:06:39;;;;;;;24.73;16.63;;;;;;;-148.88;100.00;-17125.47;5062058;23;20132;-84
2023/10/21 07:09:06;;;;;;;59.67;39.80;;;;;;;-148.88;100.00;-17125.47;5079515;28;20028;-81
2023/10/21 07:11:35;;;;;;;64.50;42.95;;;;;;;-148.88;100.00;-17125.47;5079265;28;20031;-83
2023/10/21 07:14:00;;;;;;;53.55;40.65;;;;;;;-148.88;100.00;-17125.47;5077639;28;20032;-85
2023/10/21 07:16:26;;;;;;;63.88;46.40;;;;;;;-148.88;100.00;-17125.47;5077763;28;20553;-84
2023/10/21 07:19:13;;;;;;;47.85;34.95;;;;;;;-148.88;100.00;-17125.47;5078089;28;20086;-84
2023/10/21 07:21:38;;;;;;;39.38;25.40;;;;;;;-148.88;100.00;-17125.47;5107822;22;20060;-86
2023/10/21 07:24:04;;;;;;;43.80;28.38;;;;;;;-148.88;100.00;-17125.47;5054142;28;20467;-86
2023/10/21 07:26:29;;;;;;;46.03;32.88;;;;;;;-148.88;100.00;-17125.47;5053071;28;20036;-84
2023/10/21 07:28:55;;;;;;;46.80;31.50;;;;;;;-148.88;100.00;-17125.47;5053015;28;20025;-83
2023/10/21 07:31:20;;;;;;;25.63;18.23;;;;;;;-148.88;100.00;-17125.47;5052971;28;20475;-84
2023/10/21 07:33:46;;;;;;;25.50;19.17;;;;;;;-148.88;100.00;-17125.47;5053148;28;20020;-84
2023/10/21 07:36:11;;;;;;;28.75;20.48;;;;;;;-148.88;100.00;-17125.47;5053070;28;20434;-84
2023/10/21 07:38:36;;;;;;;23.58;17.83;;;;;;;-148.88;100.00;-17125.47;5054808;28;20100;-84
2023/10/21 07:41:12;;;;;;;33.85;22.70;;;;;;;-148.88;100.00;-17125.47;5057243;28;20028;-85
2023/10/21 07:43:39;;;;;;;28.58;20.52;;;;;;;-148.88;100.00;-17125.47;5057485;28;20036;-84
2023/10/21 07:46:05;;;;;;;28.00;18.90;;;;;;;-148.88;100.00;-17125.47;5057633;28;20032;-84
2023/10/21 07:48:31;;;;;;;15.13;12.07;;;;;;;-148.88;100.00;-17125.47;5055914;28;20021;-84
2023/10/21 07:51:04;;;;;;;21.27;14.63;;;;;;;-148.88;100.00;-17125.47;5055839;28;20492;-84
2023/10/21 07:53:34;;;;;;;19.10;13.93;;;;;;;-148.88;100.00;-17125.47;5057156;28;20036;-83
2023/10/21 07:56:00;;;;;;;17.02;12.50;;;;;;;-148.88;100.00;-17125.47;5057631;28;20025;-84
2023/10/21 07:58:25;;;;;;;23.27;16.17;;;;;;;-148.88;100.00;-17125.47;5056667;28;20461;-84
2023/10/21 08:00:51;;;;;;;19.67;14.38;;;;;;;-148.88;100.00;-17125.47;5056644;28;20104;-84
2023/10/21 08:03:17;;;;;;;20.38;14.52;;;;;;;-148.88;100.00;-17125.47;5055710;28;20021;-84
2023/10/21 08:05:42;;;;;;;21.10;14.98;;;;;;;-148.88;100.00;-17125.47;5056300;28;20064;-84
2023/10/21 08:08:08;;;;;;;23.25;15.25;;;;;;;-148.88;100.00;-17125.47;5056445;28;20028;-85
2023/10/21 08:10:35;;;;;;;27.50;17.05;;;;;;;-148.88;100.00;-17125.47;5056392;28;20028;-84
2023/10/21 08:13:01;;;;;;;28.83;17.88;;;;;;;-148.88;100.00;-17125.47;5056613;28;20017;-84
2023/10/21 08:15:29;;;;;;;32.63;19.40;;;;;;;-148.88;100.00;-17125.47;5056911;28;20023;-83
2023/10/21 08:17:54;;;;;;;30.58;19.45;;;;;;;-148.88;100.00;-17125.47;5056604;28;20399;-84
2023/10/21 08:20:22;;;;;;;30.15;18.80;;;;;;;-148.88;100.00;-17125.47;5056369;28;20017;-84
2023/10/21 08:22:47;;;;;;;30.75;19.52;;;;;;;-148.88;100.00;-17125.47;5056293;28;20052;-84
2023/10/21 08:25:13;;;;;;;27.02;17.95;;;;;;;-148.88;100.00;-17125.47;5056207;28;20064;-84
2023/10/21 08:27:39;;;;;;;28.63;18.50;;;;;;;-148.88;100.00;-17125.47;5054554;28;20071;-84
2023/10/21 08:30:06;;;;;;;30.20;18.10;;;;;;;-148.88;100.00;-17125.47;5054972;28;20025;-84
2023/10/21 08:32:31;;;;;;;25.33;16.73;;;;;;;-148.88;100.00;-17125.47;5056210;28;20025;-84
2023/10/21 08:34:57;;;;;;;25.23;16.98;;;;;;;-148.88;100.00;-17125.47;5057365;28;20029;-82
2023/10/21 08:37:22;;;;;;;30.23;18.52;;;;;;;-148.88;100.00;-17125.47;5056513;28;20017;-83
2023/10/21 08:39:50;;;;;;;28.35;17.52;;;;;;;-148.88;100.00;-17125.47;5038282;28;20484;-84
2023/10/21 08:42:29;;;;;;;25.77;17.95;;;;;;;-148.88;100.00;-17125.47;5054425;28;20032;-85
2023/10/21 08:45:05;;;;;;;23.27;17.30;;;;;;;-148.88;100.00;-17125.47;5056035;28;20025;-85
2023/10/21 08:47:31;;;;;;;27.40;18.27;;;;;;;-148.88;100.00;-17125.47;5056558;28;20025;-85
2023/10/21 08:49:57;;;;;;;29.92;18.90;;;;;;;-148.88;100.00;-17125.47;5055445;28;20055;-84
2023/10/21 08:52:24;;;;;;;25.98;17.52;;;;;;;-148.88;100.00;-17125.47;5055928;28;20399;-84
2023/10/21 08:54:49;;;;;;;23.90;16.85;;;;;;;-148.88;100.00;-17125.47;5056167;28;20025;-83
2023/10/21 08:57:16;;;;;;;25.65;17.35;;;;;;;-148.88;100.00;-17125.47;5056545;28;20021;-83
2023/10/21 08:59:43;;;;;;;29.17;19.98;;;;;;;-148.88;100.00;-17125.47;5054665;28;20021;-83
2023/10/21 09:02:08;;;;;;;34.00;23.00;;;;;;;-148.88;100.00;-17125.47;5055669;28;20048;-86
2023/10/21 09:04:36;;;;;;;33.85;20.42;;;;;;;-148.88;100.00;-17125.47;5055677;28;20451;-84
2023/10/21 09:07:04;;;;;;;31.67;18.70;;;;;;;-148.88;100.00;-17125.47;5053805;28;20032;-85
2023/10/21 09:09:30;;;;;;;28.88;19.33;;;;;;;-148.88;100.00;-17125.47;5054089;28;20029;-84
2023/10/21 09:12:24;;;;;;;28.05;19.27;;;;;;;-148.88;100.00;-17125.47;5055610;28;20025;-84
2023/10/21 09:14:58;;;;;;;29.60;18.50;;;;;;;-148.88;100.00;-17125.47;5046423;28;20614;-85
2023/10/21 09:17:38;;;;;;;27.27;17.48;;;;;;;-148.88;100.00;-17125.47;5055316;28;20017;-83
2023/10/21 09:20:13;;;;;;;23.52;16.40;;;;;;;-148.88;100.00;-17125.47;5055413;28;20151;-82
2023/10/21 09:22:40;;;;;;;25.45;15.73;;;;;;;-148.88;100.00;-17125.47;5054513;28;20040;-83
2023/10/21 09:25:19;;;;;;;20.60;14.13;;;;;;;-148.88;100.00;-17125.47;5055133;28;20032;-82
2023/10/21 09:27:46;;;;;;;18.17;12.15;;;;;;;-148.88;100.00;-17125.47;5055224;28;20049;-82
2023/10/21 09:30:17;;;;;;;18.27;12.93;;;;;;;-148.88;100.00;-17125.47;5055240;28;20084;-83
2023/10/21 09:32:44;;;;;;;18.17;11.85;;;;;;;-148.88;100.00;-17125.47;5054226;28;20486;-82
2023/10/21 09:35:23;;;;;;;14.00;10.35;;;;;;;-148.88;100.00;-17125.47;5055325;28;20059;-82
2023/10/21 09:37:49;;;;;;;13.95;9.85;;;;;;;-148.88;100.00;-17125.47;5053988;28;20071;-83
2023/10/21 09:40:15;;;;;;;12.38;9.32;;;;;;;-148.88;100.00;-17125.47;5053749;28;20033;-81
2023/10/21 09:42:43;;;;;;;10.00;7.75;;;;;;;-148.88;100.00;-17125.47;5055285;28;20039;-82
2023/10/21 09:45:13;;;;;;;10.95;8.15;;;;;;;-148.88;100.00;-17125.47;5055070;28;20029;-81
2023/10/21 09:47:40;;;;;;;9.55;6.55;;;;;;;-148.88;100.00;-17125.47;5053825;28;20024;-83
2023/10/21 09:50:11;;;;;;;9.75;5.82;;;;;;;-148.88;100.00;-17125.47;5055203;28;20029;-82
2023/10/21 09:52:59;;;;;;;6.22;4.20;;;;;;;-148.88;100.00;-17125.47;5054210;28;20100;-83
2023/10/21 09:55:27;;;;;;;4.35;2.70;;;;;;;-148.88;100.00;-17125.47;5043764;28;20044;-82
2023/10/21 09:57:53;;;;;;;3.47;2.55;;;;;;;-148.88;100.00;-17125.47;5053180;28;20033;-82
2023/10/21 10:00:19;;;;;;;6.10;2.38;;;;;;;-148.88;100.00;-17125.47;5053466;28;20131;-82
2023/10/21 10:02:50;;;;;;;2.72;1.92;;;;;;;-148.88;100.00;-17125.47;5054982;28;20029;-82
2023/10/21 10:05:17;;;;;;;3.13;1.67;;;;;;;-148.88;100.00;-17125.47;5055587;28;20039;-83
2023/10/21 10:07:47;;;;;;;3.38;1.40;;;;;;;-148.88;100.00;-17125.47;5054364;28;20085;-84
2023/10/21 10:10:15;;;;;;;3.35;1.20;;;;;;;-148.88;100.00;-17125.47;5053325;28;20078;-84
2023/10/21 10:12:45;;;;;;;3.30;1.10;;;;;;;-148.88;100.00;-17125.47;5054277;28;20546;-84
2023/10/21 10:15:32;;;;;;;2.30;0.98;;;;;;;-148.88;100.00;-17125.47;5053457;28;20458;-83
2023/10/21 10:18:03;;;;;;;3.38;0.98;;;;;;;-148.88;100.00;-17125.47;5052902;28;20017;-84
2023/10/21 10:20:29;;;;;;;2.75;1.20;;;;;;;-148.88;100.00;-17125.47;5052711;28;20503;-84
2023/10/21 10:23:07;;;;;;;3.40;1.20;;;;;;;-148.88;100.00;-17125.47;5053240;28;20086;-84
2023/10/21 10:25:36;;;;;;;2.92;1.75;;;;;;;-148.88;100.00;-17125.47;5052612;28;20040;-83
2023/10/21 10:28:07;;;;;;;1.45;0.82;;;;;;;-148.88;100.00;-17125.47;5053192;28;20383;-84
2023/10/21 10:30:34;;;;;;;1.60;0.90;;;;;;;-148.88;100.00;-17125.47;5052999;28;20567;-85
2023/10/21 10:33:15;;;;;;;2.95;1.90;;;;;;;-148.88;100.00;-17125.47;5054471;28;20031;-85
2023/10/21 10:35:51;;;;;;;1.77;1.00;;;;;;;-148.88;100.00;-17125.47;5054130;28;20035;-84
2023/10/21 10:38:36;;;;;;;0.77;0.50;;;;;;;-148.88;100.00;-17125.47;5053084;28;20078;-84
2023/10/21 10:41:15;;;;;;;1.40;1.00;;;;;;;-148.88;100.00;-17125.47;5053006;28;20491;-83
2023/10/21 10:43:55;;;;;;;2.30;0.77;;;;;;;-148.88;100.00;-17125.47;5054300;28;20047;-82
2023/10/21 10:46:22;;;;;;;2.30;0.68;;;;;;;-148.88;100.00;-17125.47;5052205;28;20024;-85